createdAt,value
2017-07-18T00:01:37.554Z,100935
2017-07-18T00:04:05.714Z,100931
2017-07-18T00:06:33.878Z,100926
2017-07-18T00:09:02.063Z,100924
2017-07-18T00:11:30.233Z,100925
2017-07-18T00:13:58.601Z,100922
2017-07-18T00:16:26.783Z,100927
2017-07-18T00:18:54.946Z,100925
2017-07-18T00:21:23.103Z,100926
2017-07-18T00:23:51.299Z,100925
2017-07-18T00:26:19.466Z,100931
2017-07-18T00:28:47.755Z,100921
2017-07-18T00:31:15.892Z,100917
2017-07-18T00:33:44.055Z,100917
2017-07-18T00:36:13.041Z,100917
2017-07-18T00:38:41.204Z,100923
2017-07-18T00:41:09.376Z,100923
2017-07-18T00:43:37.559Z,100924
2017-07-18T00:46:05.712Z,100927
2017-07-18T00:48:34.650Z,100922
2017-07-18T00:51:02.855Z,100930
2017-07-18T00:53:31.039Z,100923
2017-07-18T00:55:59.196Z,100929
2017-07-18T00:58:27.351Z,100929
2017-07-18T01:00:55.542Z,100929
2017-07-18T01:03:23.697Z,100928
2017-07-18T01:05:51.866Z,100925
2017-07-18T01:08:20.054Z,100922
2017-07-18T01:10:48.203Z,100922
2017-07-18T01:13:16.357Z,100918
2017-07-18T01:15:44.539Z,100924
2017-07-18T01:18:13.461Z,100917
2017-07-18T01:20:41.632Z,100924
2017-07-18T01:23:09.852Z,100912
2017-07-18T01:25:38.012Z,100912
2017-07-18T01:28:06.176Z,100910
2017-07-18T01:30:34.370Z,100905
2017-07-18T01:33:02.522Z,100913
2017-07-18T01:35:30.673Z,100907
2017-07-18T01:37:58.861Z,100909
2017-07-18T01:40:27.045Z,100903
2017-07-18T01:42:55.200Z,100901
2017-07-18T01:45:23.386Z,100900
2017-07-18T01:47:51.649Z,100899
2017-07-18T01:50:19.826Z,100898
2017-07-18T01:52:48.002Z,100882
2017-07-18T01:55:16.172Z,100887
2017-07-18T01:57:44.330Z,100885
2017-07-18T02:00:12.615Z,100886
2017-07-18T02:02:40.804Z,100886
2017-07-18T02:05:09.056Z,100886
2017-07-18T02:07:37.272Z,100883
2017-07-18T02:10:05.619Z,100881
2017-07-18T02:12:33.811Z,100872
2017-07-18T02:15:02.132Z,100876
2017-07-18T02:17:31.079Z,100874
2017-07-18T02:19:59.226Z,100864
2017-07-18T02:22:27.402Z,100863
2017-07-18T02:24:55.551Z,100861
2017-07-18T02:27:23.707Z,100861
2017-07-18T02:29:52.645Z,100865
2017-07-18T02:32:20.811Z,100855
2017-07-18T02:34:48.990Z,100856
2017-07-18T02:37:17.145Z,100851
2017-07-18T02:39:45.293Z,100861
2017-07-18T02:42:14.246Z,100857
2017-07-18T02:44:42.510Z,100856
2017-07-18T02:47:10.681Z,100858
2017-07-18T02:49:38.830Z,100852
2017-07-18T02:52:06.969Z,100848
2017-07-18T02:54:35.899Z,100845
2017-07-18T02:57:04.196Z,100847
2017-07-18T02:59:32.319Z,100838
2017-07-18T03:02:00.508Z,100849
2017-07-18T03:04:28.646Z,100844
2017-07-18T03:06:56.865Z,100838
2017-07-18T03:09:25.006Z,100845
2017-07-18T03:11:53.925Z,100847
2017-07-18T03:14:22.118Z,100844
2017-07-18T03:16:50.286Z,100851
2017-07-18T03:19:18.425Z,100852
2017-07-18T03:21:46.579Z,100848
2017-07-18T03:24:33.294Z,100849
2017-07-18T03:27:02.250Z,100852
2017-07-18T03:29:30.404Z,100855
2017-07-18T03:31:58.562Z,100847
2017-07-18T03:34:26.759Z,100851
2017-07-18T03:36:54.908Z,100847
2017-07-18T03:39:23.091Z,100851
2017-07-18T03:41:51.265Z,100849
2017-07-18T03:44:19.424Z,100857
2017-07-18T03:46:47.641Z,100861
2017-07-18T03:49:15.792Z,100861
2017-07-18T03:51:43.942Z,100860
2017-07-18T03:54:12.126Z,100859
2017-07-18T03:56:40.278Z,100857
2017-07-18T03:59:09.192Z,100860
2017-07-18T04:01:37.390Z,100859
2017-07-18T04:04:05.547Z,100855
2017-07-18T04:06:33.810Z,100855
2017-07-18T04:09:02.147Z,100853
2017-07-18T04:11:31.059Z,100851
2017-07-18T04:13:59.233Z,100861
2017-07-18T04:16:27.406Z,100852
2017-07-18T04:18:55.567Z,100857
2017-07-18T04:21:24.513Z,100865
2017-07-18T04:23:52.663Z,100859
2017-07-18T04:26:20.819Z,100865
2017-07-18T04:28:48.991Z,100867
2017-07-18T04:31:17.206Z,100869
2017-07-18T04:33:45.362Z,100866
2017-07-18T04:36:13.546Z,100866
2017-07-18T04:38:41.817Z,100866
2017-07-18T04:41:09.977Z,100858
2017-07-18T04:43:38.156Z,100860
2017-07-18T04:46:06.300Z,100853
2017-07-18T04:48:34.491Z,100857
2017-07-18T04:51:02.635Z,100867
2017-07-18T04:53:31.582Z,100867
2017-07-18T04:55:59.754Z,100865
2017-07-18T04:58:27.943Z,100860
2017-07-18T05:00:56.106Z,100860
2017-07-18T05:03:24.290Z,100866
2017-07-18T05:05:52.471Z,100863
2017-07-18T05:08:20.654Z,100862
2017-07-18T05:10:49.568Z,100864
2017-07-18T05:13:17.744Z,100864
2017-07-18T05:15:45.926Z,100857
2017-07-18T05:18:14.278Z,100855
2017-07-18T05:20:43.259Z,100852
2017-07-18T05:23:12.195Z,100855
2017-07-18T05:25:40.393Z,100853
2017-07-18T05:28:08.549Z,100858
2017-07-18T05:30:36.708Z,100846
2017-07-18T05:33:04.900Z,100850
2017-07-18T05:35:33.039Z,100854
2017-07-18T05:38:01.199Z,100854
2017-07-18T05:40:30.146Z,100854
2017-07-18T05:42:58.334Z,100846
2017-07-18T05:45:26.489Z,100844
2017-07-18T05:47:54.648Z,100850
2017-07-18T05:50:22.831Z,100849
2017-07-18T05:52:50.974Z,100845
2017-07-18T05:55:19.140Z,100845
2017-07-18T05:57:48.080Z,100839
2017-07-18T06:00:16.310Z,100834
2017-07-18T06:02:44.455Z,100836
2017-07-18T06:05:13.430Z,100839
2017-07-18T06:07:41.601Z,100849
2017-07-18T06:10:09.759Z,100846
2017-07-18T06:12:37.942Z,100838
2017-07-18T06:15:06.112Z,100845
2017-07-18T06:17:34.273Z,100834
2017-07-18T06:20:02.468Z,100845
2017-07-18T06:22:30.608Z,100834
2017-07-18T06:24:58.765Z,100843
2017-07-18T06:27:26.956Z,100834
2017-07-18T06:29:55.199Z,100835
2017-07-18T06:32:24.390Z,100828
2017-07-18T06:34:52.593Z,100834
2017-07-18T06:37:20.725Z,100824
2017-07-18T06:39:50.418Z,100830
2017-07-18T06:42:18.613Z,100824
2017-07-18T06:44:47.528Z,100828
2017-07-18T06:47:15.684Z,100830
2017-07-18T06:49:43.987Z,100829
2017-07-18T06:52:12.142Z,100827
2017-07-18T06:54:40.417Z,100819
2017-07-18T06:57:08.626Z,100815
2017-07-18T06:59:36.797Z,100814
2017-07-18T07:02:04.960Z,100815
2017-07-18T07:04:33.144Z,100817
2017-07-18T07:07:01.303Z,100817
2017-07-18T07:09:29.433Z,100815
2017-07-18T07:11:58.525Z,100813
2017-07-18T07:14:27.412Z,100818
2017-07-18T07:16:56.353Z,100812
2017-07-18T07:19:24.527Z,100822
2017-07-18T07:21:52.689Z,100813
2017-07-18T07:24:20.963Z,100809
2017-07-18T07:26:49.117Z,100816
2017-07-18T07:29:17.281Z,100814
2017-07-18T07:31:46.221Z,100811
2017-07-18T07:34:14.455Z,100808
2017-07-18T07:36:42.623Z,100811
2017-07-18T07:39:11.554Z,100813
2017-07-18T07:41:39.747Z,100823
2017-07-18T07:44:07.949Z,100814
2017-07-18T07:46:36.097Z,100804
2017-07-18T07:49:04.266Z,100801
2017-07-18T07:51:32.488Z,100806
2017-07-18T07:54:01.414Z,100801
2017-07-18T07:56:29.552Z,100800
2017-07-18T07:58:58.129Z,100792
2017-07-18T08:01:27.063Z,100801
2017-07-18T08:03:55.217Z,100802
2017-07-18T08:06:23.396Z,100797
2017-07-18T08:08:51.636Z,100795
2017-07-18T08:11:20.589Z,100792
2017-07-18T08:13:48.761Z,100787
2017-07-18T08:16:16.922Z,100797
2017-07-18T08:18:45.133Z,100786
2017-07-18T08:21:13.281Z,100779
2017-07-18T08:23:41.447Z,100782
2017-07-18T08:26:09.653Z,100776
2017-07-18T08:28:37.819Z,100779
2017-07-18T08:31:05.956Z,100783
2017-07-18T08:33:34.137Z,100773
2017-07-18T08:36:02.310Z,100775
2017-07-18T08:38:30.518Z,100770
2017-07-18T08:40:59.458Z,100769
2017-07-18T08:43:27.614Z,100777
2017-07-18T08:45:55.822Z,100773
2017-07-18T08:48:23.978Z,100764
2017-07-18T08:50:52.129Z,100762
2017-07-18T08:53:20.336Z,100763
2017-07-18T08:55:48.506Z,100757
2017-07-18T08:58:16.655Z,100751
2017-07-18T09:00:44.849Z,100759
2017-07-18T09:03:13.016Z,100760
2017-07-18T09:05:41.183Z,100779
2017-07-18T09:08:09.380Z,100766
2017-07-18T09:10:37.537Z,100767
2017-07-18T09:13:05.687Z,100755
2017-07-18T09:15:33.871Z,100750
2017-07-18T09:18:02.016Z,100760
2017-07-18T09:20:30.210Z,100764
2017-07-18T09:22:58.419Z,100766
2017-07-18T09:25:26.575Z,100765
2017-07-18T09:27:54.744Z,100766
2017-07-18T09:30:22.926Z,100762
2017-07-18T09:32:51.079Z,100767
2017-07-18T09:35:19.214Z,100769
2017-07-18T09:37:48.172Z,100758
2017-07-18T09:40:16.361Z,100759
2017-07-18T09:42:44.549Z,100763
2017-07-18T09:45:13.557Z,100754
2017-07-18T09:47:42.484Z,100758
2017-07-18T09:50:10.630Z,100756
2017-07-18T09:52:39.990Z,100754
2017-07-18T09:55:08.121Z,100763
2017-07-18T09:57:36.475Z,100751
2017-07-18T10:00:05.500Z,100750
2017-07-18T10:02:33.637Z,100749
2017-07-18T10:05:01.850Z,100752
2017-07-18T10:07:30.033Z,100753
2017-07-18T10:09:58.198Z,100740
2017-07-18T10:12:26.349Z,100732
2017-07-18T10:14:54.545Z,100735
2017-07-18T10:17:22.758Z,100739
2017-07-18T10:19:51.694Z,100734
2017-07-18T10:22:20.011Z,100731
2017-07-18T10:24:48.156Z,100739
2017-07-18T10:27:16.521Z,100726
2017-07-18T10:29:44.733Z,100731
2017-07-18T10:32:12.977Z,100718
2017-07-18T10:34:41.172Z,100718
2017-07-18T10:37:09.364Z,100715
2017-07-18T10:39:37.625Z,100714
2017-07-18T10:42:05.898Z,100716
2017-07-18T10:44:34.073Z,100720
2017-07-18T10:47:02.226Z,100702
2017-07-18T10:49:30.574Z,100702
2017-07-18T10:51:58.776Z,100696
2017-07-18T10:54:26.945Z,100696
2017-07-18T10:56:55.976Z,100698
2017-07-18T10:59:24.120Z,100690
2017-07-18T11:01:52.260Z,100688
2017-07-18T11:04:20.462Z,100680
2017-07-18T11:06:48.648Z,100678
2017-07-18T11:09:16.814Z,100679
2017-07-18T11:11:44.985Z,100675
2017-07-18T11:14:13.136Z,100665
2017-07-18T11:16:41.325Z,100669
2017-07-18T11:19:09.497Z,100663
2017-07-18T11:21:37.654Z,100657
2017-07-18T11:24:05.859Z,100656
2017-07-18T11:26:34.030Z,100645
2017-07-18T11:29:02.204Z,100651
2017-07-18T11:31:30.398Z,100656
2017-07-18T11:33:58.580Z,100655
2017-07-18T11:36:26.758Z,100656
2017-07-18T11:38:55.701Z,100643
2017-07-18T11:41:23.906Z,100647
2017-07-18T11:43:52.089Z,100640
2017-07-18T11:46:20.245Z,100638
2017-07-18T11:48:48.405Z,100634
2017-07-18T11:51:16.634Z,100633
2017-07-18T11:53:45.592Z,100640
2017-07-18T11:56:13.716Z,100630
2017-07-18T11:58:41.930Z,100626
2017-07-18T12:01:10.103Z,100619
2017-07-18T12:03:38.289Z,100616
2017-07-18T12:06:06.489Z,100626
2017-07-18T12:08:35.400Z,100616
2017-07-18T12:11:03.591Z,100611
2017-07-18T12:13:31.753Z,100612
2017-07-18T12:16:00.084Z,100620
2017-07-18T12:18:46.837Z,100616
2017-07-18T12:21:15.047Z,100614
2017-07-18T12:23:43.208Z,100607
2017-07-18T12:26:11.363Z,100604
2017-07-18T12:28:39.574Z,100601
2017-07-18T12:31:07.746Z,100608
2017-07-18T12:33:35.918Z,100598
2017-07-18T12:36:04.064Z,100593
2017-07-18T12:38:32.229Z,100583
2017-07-18T12:41:00.407Z,100579
2017-07-18T12:43:28.572Z,100581
2017-07-18T12:45:56.785Z,100574
2017-07-18T12:48:24.937Z,100580
2017-07-18T12:50:53.126Z,100576
2017-07-18T12:53:21.496Z,100569
2017-07-18T12:55:49.673Z,100563
2017-07-18T12:58:17.935Z,100565
2017-07-18T13:00:46.260Z,100551
2017-07-18T13:03:15.186Z,100548
2017-07-18T13:05:43.321Z,100551
2017-07-18T13:08:11.610Z,100557
2017-07-18T13:10:39.833Z,100547
2017-07-18T13:13:08.116Z,100556
2017-07-18T13:15:36.362Z,100545
2017-07-18T13:18:04.506Z,100542
2017-07-18T13:20:32.680Z,100543
2017-07-18T13:23:00.877Z,100535
2017-07-18T13:25:29.045Z,100534
2017-07-18T13:27:57.202Z,100532
2017-07-18T13:30:25.377Z,100533
2017-07-18T13:32:53.526Z,100533
2017-07-18T13:35:22.493Z,100535
2017-07-18T13:37:50.686Z,100526
2017-07-18T13:40:18.842Z,100514
2017-07-18T13:42:47.029Z,100528
2017-07-18T13:45:15.993Z,100519
2017-07-18T13:47:44.198Z,100521
2017-07-18T13:50:12.358Z,100516
2017-07-18T13:52:40.503Z,100506
2017-07-18T13:55:08.692Z,100500
2017-07-18T13:57:36.858Z,100500
2017-07-18T14:00:05.026Z,100506
2017-07-18T14:02:33.216Z,100500
2017-07-18T14:05:01.384Z,100501
2017-07-18T14:07:29.563Z,100503
2017-07-18T14:09:57.773Z,100494
2017-07-18T14:12:26.703Z,100491
2017-07-18T14:14:54.904Z,100483
2017-07-18T14:17:23.130Z,100496
2017-07-18T14:19:51.309Z,100487
2017-07-18T14:22:19.464Z,100485
2017-07-18T14:24:47.638Z,100477
2017-07-18T14:27:15.817Z,100474
2017-07-18T14:29:44.007Z,100478
2017-07-18T14:32:12.187Z,100476
2017-07-18T14:34:40.350Z,100468
2017-07-18T14:37:08.576Z,100460
2017-07-18T14:39:36.725Z,100461
2017-07-18T14:42:04.917Z,100450
2017-07-18T14:44:33.105Z,100454
2017-07-18T14:47:02.033Z,100446
2017-07-18T14:49:30.193Z,100439
2017-07-18T14:51:58.405Z,100445
2017-07-18T14:54:26.561Z,100439
2017-07-18T14:56:54.685Z,100431
2017-07-18T14:59:23.658Z,100433
2017-07-18T15:01:51.897Z,100435
2017-07-18T15:04:20.083Z,100436
2017-07-18T15:06:48.298Z,100434
2017-07-18T15:09:17.249Z,100430
2017-07-18T15:11:45.404Z,100430
2017-07-18T15:14:13.684Z,100424
2017-07-18T15:16:41.838Z,100427
2017-07-18T15:19:10.000Z,100420
2017-07-18T15:21:38.171Z,100415
2017-07-18T15:24:06.391Z,100411
2017-07-18T15:26:34.605Z,100412
2017-07-18T15:29:03.530Z,100406
2017-07-18T15:31:31.688Z,100408
2017-07-18T15:33:59.863Z,100408
2017-07-18T15:36:28.028Z,100405
2017-07-18T15:38:56.237Z,100396
2017-07-18T15:41:24.406Z,100399
2017-07-18T15:43:52.637Z,100391
2017-07-18T15:46:21.551Z,100393
2017-07-18T15:48:49.706Z,100387
2017-07-18T15:51:18.645Z,100380
2017-07-18T15:53:46.809Z,100389
2017-07-18T15:56:15.014Z,100377
2017-07-18T15:58:43.221Z,100376
2017-07-18T16:01:11.419Z,100378
2017-07-18T16:03:39.630Z,100374
2017-07-18T16:06:07.785Z,100374
2017-07-18T16:08:36.006Z,100376
2017-07-18T16:11:04.942Z,100370
2017-07-18T16:13:33.242Z,100368
2017-07-18T16:16:01.493Z,100368
2017-07-18T16:18:29.636Z,100364
2017-07-18T16:20:57.845Z,100368
2017-07-18T16:23:26.025Z,100362
2017-07-18T16:25:54.233Z,100366
2017-07-18T16:28:23.274Z,100354
2017-07-18T16:30:51.422Z,100353
2017-07-18T16:33:19.602Z,100345
2017-07-18T16:35:47.802Z,100346
2017-07-18T16:38:15.949Z,100350
2017-07-18T16:40:44.153Z,100335
2017-07-18T16:43:12.310Z,100335
2017-07-18T16:45:40.481Z,100332
2017-07-18T16:48:08.685Z,100341
2017-07-18T16:50:36.835Z,100339
2017-07-18T16:53:05.001Z,100336
2017-07-18T16:55:33.174Z,100347
2017-07-18T16:58:01.333Z,100346
2017-07-18T17:00:29.518Z,100343
2017-07-18T17:02:57.737Z,100346
2017-07-18T17:05:25.917Z,100338
2017-07-18T17:07:54.070Z,100341
2017-07-18T17:10:22.266Z,100336
2017-07-18T17:12:50.444Z,100341
2017-07-18T17:15:19.362Z,100346
2017-07-18T17:17:47.572Z,100348
2017-07-18T17:20:15.737Z,100351
2017-07-18T17:22:43.905Z,100343
2017-07-18T17:25:12.949Z,100342
2017-07-18T17:27:41.889Z,100340
2017-07-18T17:30:10.038Z,100339
2017-07-18T17:32:38.234Z,100333
2017-07-18T17:35:06.441Z,100347
2017-07-18T17:37:34.603Z,100339
2017-07-18T17:40:02.755Z,100341
2017-07-18T17:42:30.951Z,100338
2017-07-18T17:44:59.273Z,100335
2017-07-18T17:47:27.426Z,100333
2017-07-18T17:49:56.422Z,100324
2017-07-18T17:52:25.361Z,100326
2017-07-18T17:54:53.505Z,100325
2017-07-18T17:57:21.713Z,100333
2017-07-18T17:59:49.892Z,100325
2017-07-18T18:02:18.064Z,100330
2017-07-18T18:04:46.261Z,100330
2017-07-18T18:07:14.454Z,100335
2017-07-18T18:09:43.440Z,100333
2017-07-18T18:12:11.593Z,100331
2017-07-18T18:14:39.766Z,100336
2017-07-18T18:17:07.979Z,100343
2017-07-18T18:19:36.932Z,100340
2017-07-18T18:22:05.164Z,100337
2017-07-18T18:24:33.333Z,100342
2017-07-18T18:27:01.499Z,100338
2017-07-18T18:29:29.870Z,100335
2017-07-18T18:31:58.797Z,100339
2017-07-18T18:34:26.991Z,100340
2017-07-18T18:36:55.204Z,100335
2017-07-18T18:39:23.370Z,100339
2017-07-18T18:41:51.533Z,100342
2017-07-18T18:44:20.509Z,100337
2017-07-18T18:46:48.655Z,100345
2017-07-18T18:49:16.867Z,100339
2017-07-18T18:51:45.862Z,100339
2017-07-18T18:54:14.809Z,100347
2017-07-18T18:56:42.993Z,100343
2017-07-18T18:59:11.193Z,100339
2017-07-18T19:01:39.490Z,100348
2017-07-18T19:04:08.416Z,100335
2017-07-18T19:06:36.613Z,100338
2017-07-18T19:09:04.767Z,100345
2017-07-18T19:11:33.046Z,100338
2017-07-18T19:14:01.195Z,100336
2017-07-18T19:16:29.422Z,100341
2017-07-18T19:18:57.588Z,100343
2017-07-18T19:21:25.781Z,100344
2017-07-18T19:23:53.964Z,100345
2017-07-18T19:26:22.985Z,100346
2017-07-18T19:28:51.133Z,100341
2017-07-18T19:31:20.097Z,100343
2017-07-18T19:33:48.273Z,100343
2017-07-18T19:36:16.490Z,100339
2017-07-18T19:38:45.540Z,100340
2017-07-18T19:41:13.688Z,100356
2017-07-18T19:43:41.799Z,100352
2017-07-18T19:46:10.757Z,100355
2017-07-18T19:48:38.947Z,100363
2017-07-18T19:51:07.064Z,100364
2017-07-18T19:53:35.302Z,100355
2017-07-18T19:56:04.282Z,100356
2017-07-18T19:58:32.518Z,100352
2017-07-18T20:01:00.662Z,100352
2017-07-18T20:03:29.636Z,100362
2017-07-18T20:05:57.781Z,100361
2017-07-18T20:08:25.979Z,100351
2017-07-18T20:10:54.269Z,100354
2017-07-18T20:13:23.281Z,100358
2017-07-18T20:15:51.476Z,100354
2017-07-18T20:18:19.648Z,100348
2017-07-18T20:20:47.898Z,100345
2017-07-18T20:23:16.054Z,100353
2017-07-18T20:25:44.969Z,100350
2017-07-18T20:28:13.198Z,100355
2017-07-18T20:30:41.365Z,100359
2017-07-18T20:33:09.541Z,100357
2017-07-18T20:35:37.744Z,100363
2017-07-18T20:38:06.693Z,100357
2017-07-18T20:40:34.869Z,100349
2017-07-18T20:43:03.066Z,100347
2017-07-18T20:45:31.263Z,100350
2017-07-18T20:48:00.184Z,100346
2017-07-18T20:50:28.386Z,100348
2017-07-18T20:52:56.605Z,100347
2017-07-18T20:55:25.553Z,100349
2017-07-18T20:57:53.737Z,100347
2017-07-18T21:00:21.909Z,100355
2017-07-18T21:02:50.103Z,100349
2017-07-18T21:05:19.101Z,100347
2017-07-18T21:07:48.038Z,100346
2017-07-18T21:10:16.217Z,100347
2017-07-18T21:12:44.421Z,100342
2017-07-18T21:15:12.573Z,100341
2017-07-18T21:17:40.873Z,100335
2017-07-18T21:20:09.882Z,100336
2017-07-18T21:22:38.967Z,100337
2017-07-18T21:25:07.910Z,100334
2017-07-18T21:27:36.081Z,100336
2017-07-18T21:30:04.270Z,100333
2017-07-18T21:32:32.442Z,100336
2017-07-18T21:35:00.668Z,100338
2017-07-18T21:37:28.793Z,100339
2017-07-18T21:39:57.202Z,100324
2017-07-18T21:42:26.160Z,100334
2017-07-18T21:44:54.339Z,100330
2017-07-18T21:47:22.474Z,100325
2017-07-18T21:49:50.616Z,100335
2017-07-18T21:52:19.625Z,100324
2017-07-18T21:54:47.823Z,100335
2017-07-18T21:57:15.994Z,100320
2017-07-18T21:59:44.182Z,100322
2017-07-18T22:02:12.355Z,100323
2017-07-18T22:04:40.578Z,100318
2017-07-18T22:07:09.533Z,100314
2017-07-18T22:09:37.709Z,100313
2017-07-18T22:12:05.926Z,100310
2017-07-18T22:14:34.095Z,100315
2017-07-18T22:17:02.370Z,100309
2017-07-18T22:19:30.534Z,100303
2017-07-18T22:21:59.476Z,100306
2017-07-18T22:24:27.683Z,100304
2017-07-18T22:26:55.857Z,100290
2017-07-18T22:29:24.857Z,100295
2017-07-18T22:31:53.121Z,100296
2017-07-18T22:34:21.358Z,100288
2017-07-18T22:36:49.579Z,100286
2017-07-18T22:39:17.735Z,100282
2017-07-18T22:41:45.916Z,100281
2017-07-18T22:44:14.086Z,100289
2017-07-18T22:46:42.329Z,100279
2017-07-18T22:49:10.488Z,100290
2017-07-18T22:51:38.640Z,100271
2017-07-18T22:54:06.891Z,100278
2017-07-18T22:56:35.057Z,100279
2017-07-18T22:59:03.211Z,100267
2017-07-18T23:01:31.384Z,100270
2017-07-18T23:03:59.566Z,100275
2017-07-18T23:06:27.762Z,100272
2017-07-18T23:08:56.705Z,100270
2017-07-18T23:11:24.876Z,100263
2017-07-18T23:13:53.090Z,100267
2017-07-18T23:16:22.058Z,100272
2017-07-18T23:18:50.259Z,100276
2017-07-18T23:21:18.432Z,100272
2017-07-18T23:23:46.597Z,100272
2017-07-18T23:26:14.790Z,100274
2017-07-18T23:28:42.953Z,100277
2017-07-18T23:31:11.923Z,100277
2017-07-18T23:33:40.070Z,100280
2017-07-18T23:36:08.317Z,100266
2017-07-18T23:38:36.453Z,100273
2017-07-18T23:41:04.633Z,100276
2017-07-18T23:43:32.838Z,100269
2017-07-18T23:46:00.981Z,100253
2017-07-18T23:48:29.952Z,100264
2017-07-18T23:50:58.161Z,100263
2017-07-18T23:53:27.103Z,100264
2017-07-18T23:55:55.269Z,100261
2017-07-18T23:58:23.458Z,100251
